AirNav   Air Wisconsin Up To $57,000 Bonus
 
 1587 users online  

CN15 Vineyard Oaks Farm Airport
Lemoore, California, USA

GOING TO LEMOORE?


FAA INFORMATION EFFECTIVE 04 NOVEMBER 2021

Location

FAA Identifier: CN15
Lat/Long: 36-22-05.3900N 119-47-05.9800W
36-22.089833N 119-47.099667W
36.3681639,-119.7849944
(estimated)
Elevation: 210 ft. / 64 m (estimated)
From city: 4 miles N of LEMOORE, CA
Time zone: UTC -7 (UTC -8 during Standard Time)
Zip code: 93245

Airport Operations

Airport use: Private use. Permission required prior to landing
Activation date: 07/2003
Control tower: no
ARTCC: OAKLAND CENTER
FSS: RANCHO MURIETA FLIGHT SERVICE STATION
Attendance: UNATNDD
Wind indicator: yes
Segmented circle: no

Airport Communications

WX ASOS at HJO (8 nm E): 134.75 (559-585-8076)
WX AWOS-3 at NLC (8 nm W): 121.575 (559-998-2336)
WX AWOS-3PT at VIS (19 nm E): 119.925 (559-651-2418)

Nearby radio navigation aids

VOR radial/distance  VOR name  Freq  Var
VISr254/14.6VISALIA VOR/DME109.4016E

 
NDB name  Hdg/Dist  Freq  Var  ID
SALYER FARMS310/21.920516ECOR -.-. --- .-.

Airport Services

Runway Information

Runway 16/34

Dimensions: 2180 x 50 ft. / 664 x 15 m
Surface: turf
RUNWAY 16  RUNWAY 34
Traffic pattern: leftleft
Displaced threshold: 360 ft.
DSPLCD THLD RY 16 MARKED WITH PVC PIPE.
no
Obstructions: 33 ft. pline, 600 ft. from runwaynone

Airport Ownership and Management from official FAA records

Ownership: Privately-owned
Owner: VINEYARD OAKS FARM LLC
7380 18TH AVE.
LEMOORE, CA 93245
Phone 559-924-2412
Manager: WILEY W. ELICK
7380 18TH AVE.
LEMOORE, CA 93245
Phone (559) 410-1610

Airport Operational Statistics

Aircraft based on the field: 5
Single engine airplanes: 3
Multi engine airplanes: 2
    

Additional Remarks

FOR CD CTC OAKLAND ARTCC AT 510-745-3380.

Instrument Procedures

There are no published instrument procedures at CN15.

Some nearby airports with instrument procedures:

KHJO - Hanford Municipal Airport (8 nm E)
KNLC - Lemoore Naval Air Station (Reeves Field) (8 nm W)
KVIS - Visalia Municipal Airport (19 nm E)
KFCH - Fresno Chandler Executive Airport (22 nm N)
O32 - Reedley Municipal Airport (24 nm NE)
 
Loc | Ops | Rwys | IFR | FBO | Links
Com | Nav | Svcs | Stats | Notes
Area around CN15 (Vineyard Oaks Farm Airport)
 
Road maps at: MapQuest Bing Google
 
Aerial photo
No photo
 
Sectional chart

 
Airport distance calculator
Flying to Vineyard Oaks Farm Airport? Find the distance to fly.

From to CN15

Sunrise and sunset
Times for 30-Nov-2021
 Local
(UTC-8)
 Zulu
(UTC)
Morning civil twilight06:2414:24
Sunrise06:5214:52
Sunset16:4300:43
Evening civil twilight17:1201:12

Current date and time
Zulu (UTC)  30-Nov-2021 18:27:29
Local (UTC-8)  30-Nov-2021 10:27:29
 
METAR
KNLC 
9nm W 
301756Z 14003KT 5SM HZ CLR 14/06 A3019 RMK AO2 SLP225 RH/57 T01390061 10139 20017 50012
KHJO 
9nm E 
301753Z AUTO 00000KT 3SM HZ CLR 12/06 A3020 RMK AO2 SLP230 T01220061 10122 20011 51016
KVIS 
19nm E 
301756Z AUTO 17003KT 5SM HZ CLR 14/07 A3020 RMK AO2 SLP237 T01390072 10139 20033 51013
TAF
KNLC 
9nm W 
3015/0115 VRB06KT 9000 HZ FEW005 QNH3006INS TEMPO 3015/3018 4000 BR BKN003 FM301900 VRB06KT 9999 SKC QNH3008INS T21/3023Z T04/0112Z COR 1516 FS30165
KVIS 
19nm E 
300520Z 3006/0106 00000KT 5SM BR SKC FM301200 00000KT 2SM BR SKC TEMPO 3014/3018 3/4SM BR SKC FM301900 VRB03KT 5SM HZ SKC
NOTAMs
Click for the latest NOTAMs
NOTAMs are issued by the DoD/FAA and will open in a separate window not controlled by AirNav.

 

 
 

Would you like to see your business listed on this page?

 If your business provides an interesting product or service to pilots, flight crews, aircraft, or users of the Vineyard Oaks Farm Airport, you should consider listing it here.  To start the listing process, click on the button below
 
Add a business
 

Other Pages about Vineyard Oaks Farm Airport

Update a link
 
Copyright © AirNav, LLC. All rights reserved. Privacy Policy  Contact